Time;durP1;ratioP1;P1;durP2;ratioP2;P2;SDS_P1;SDS_P2;PMS_P1;PMS_P2;Temp;Humidity;BMP_temperature;BMP_pressure;BME280_temperature;BME280_humidity;BME280_pressure;Samples;Min_cycle;Max_cycle;Signal;HPM_P1;HPM_P2
2023/07/03 00:00:47;;;;;;;19.33;6.70;;;16.90;99.90;;;;;;5087789;28;20406;-65
2023/07/03 00:03:13;;;;;;;18.10;6.70;;;16.90;99.90;;;;;;5085362;28;20421;-65
2023/07/03 00:05:46;;;;;;;20.63;6.13;;;17.00;99.90;;;;;;5085590;28;20394;-65
2023/07/03 00:08:13;;;;;;;19.38;6.10;;;17.00;99.90;;;;;;5088028;28;20400;-65
2023/07/03 00:10:38;;;;;;;21.80;6.00;;;17.00;99.90;;;;;;5086959;28;20424;-65
2023/07/03 00:13:04;;;;;;;19.93;6.43;;;16.90;99.90;;;;;;5090733;28;20605;-65
2023/07/03 00:15:30;;;;;;;18.33;6.20;;;16.90;99.90;;;;;;5086713;28;20980;-65
2023/07/03 00:17:55;;;;;;;21.98;6.28;;;17.00;99.90;;;;;;5087199;28;20393;-65
2023/07/03 00:20:21;;;;;;;24.70;6.80;;;16.90;99.90;;;;;;5087645;28;20410;-65
2023/07/03 00:22:47;;;;;;;19.05;6.40;;;16.90;99.90;;;;;;5091963;28;20417;-66
2023/07/03 00:25:16;;;;;;;19.08;6.32;;;16.80;99.90;;;;;;5091081;28;20417;-65
2023/07/03 00:27:42;;;;;;;23.77;6.20;;;16.90;99.90;;;;;;5092131;28;20490;-65
2023/07/03 00:30:09;;;;;;;19.00;6.13;;;16.90;99.90;;;;;;5072890;28;20422;-65
2023/07/03 00:32:34;;;;;;;19.15;6.00;;;16.80;99.90;;;;;;5091640;28;20903;-66
2023/07/03 00:35:00;;;;;;;22.42;6.90;;;16.80;99.90;;;;;;5091484;28;20425;-66
2023/07/03 00:37:26;;;;;;;20.33;6.47;;;16.80;99.90;;;;;;5091653;28;20386;-66
2023/07/03 00:39:52;;;;;;;22.58;6.43;;;16.80;99.90;;;;;;5091181;28;20410;-66
2023/07/03 00:42:18;;;;;;;19.33;6.30;;;16.90;99.90;;;;;;5086745;28;20407;-66
2023/07/03 00:44:43;;;;;;;21.15;6.50;;;16.90;99.90;;;;;;5091658;28;20397;-66
2023/07/03 00:47:10;;;;;;;24.00;6.45;;;16.90;99.90;;;;;;5091757;28;20428;-66
2023/07/03 00:49:36;;;;;;;22.02;6.35;;;16.80;99.90;;;;;;5096084;28;20421;-66
2023/07/03 00:52:03;;;;;;;18.30;6.15;;;16.80;99.90;;;;;;5091190;28;20404;-65
2023/07/03 00:54:29;;;;;;;20.40;5.90;;;16.90;99.90;;;;;;5090904;28;20509;-66
2023/07/03 00:56:55;;;;;;;23.13;6.15;;;16.80;99.90;;;;;;5091647;28;20396;-66
2023/07/03 00:59:21;;;;;;;21.33;6.15;;;16.80;99.90;;;;;;5072061;28;20785;-65
2023/07/03 01:01:51;;;;;;;23.65;6.45;;;16.90;99.90;;;;;;5091596;28;20398;-66
2023/07/03 01:04:30;;;;;;;23.17;6.38;;;16.80;99.90;;;;;;5073051;28;20440;-66
2023/07/03 01:07:07;;;;;;;23.07;6.23;;;16.90;99.90;;;;;;5098683;28;20539;-66
2023/07/03 01:09:42;;;;;;;26.48;6.63;;;16.90;99.90;;;;;;5090133;28;20477;-66
2023/07/03 01:12:08;;;;;;;24.80;6.88;;;16.90;99.90;;;;;;5091005;28;20397;-66
2023/07/03 01:14:37;;;;;;;21.83;5.75;;;16.90;99.90;;;;;;5071701;28;20430;-66
2023/07/03 01:17:04;;;;;;;21.65;6.43;;;16.90;99.90;;;;;;5090663;28;20881;-66
2023/07/03 01:19:32;;;;;;;21.08;6.40;;;16.90;99.90;;;;;;5071924;28;20397;-66
2023/07/03 01:22:13;;;;;;;22.17;6.60;;;16.90;99.90;;;;;;5089186;28;20442;-66
2023/07/03 01:24:53;;;;;;;24.05;6.47;;;16.90;99.90;;;;;;5090374;28;20835;-66
2023/07/03 01:27:22;;;;;;;25.20;7.25;;;16.90;99.90;;;;;;5089694;28;20402;-66
2023/07/03 01:29:52;;;;;;;27.20;6.90;;;16.90;99.90;;;;;;5089868;28;20845;-66
2023/07/03 01:32:21;;;;;;;23.58;6.85;;;16.90;99.90;;;;;;5087911;28;20424;-66
2023/07/03 01:34:49;;;;;;;24.10;6.60;;;16.90;99.90;;;;;;5090192;28;20430;-66
2023/07/03 01:37:17;;;;;;;27.17;6.60;;;16.90;99.90;;;;;;5071965;28;20493;-66
2023/07/03 01:39:45;;;;;;;24.08;6.65;;;16.90;99.90;;;;;;5071768;28;20410;-66
2023/07/03 01:42:12;;;;;;;25.00;6.40;;;16.90;99.90;;;;;;5090094;28;20394;-66
2023/07/03 01:44:38;;;;;;;28.67;6.82;;;16.90;99.90;;;;;;5090140;28;20451;-66
2023/07/03 01:47:05;;;;;;;22.23;6.47;;;16.90;99.90;;;;;;5093895;28;20889;-66
2023/07/03 01:49:32;;;;;;;23.92;6.65;;;16.90;99.90;;;;;;5089448;28;20458;-66
2023/07/03 01:52:25;;;;;;;26.17;7.30;;;16.80;99.90;;;;;;5090184;28;20406;-66
2023/07/03 01:55:12;;;;;;;24.35;7.38;;;16.90;99.90;;;;;;5095517;28;20764;-66
2023/07/03 01:57:41;;;;;;;24.92;6.78;;;16.80;99.90;;;;;;5084757;28;20482;-66
2023/07/03 02:00:10;;;;;;;25.50;6.65;;;16.80;99.90;;;;;;5093459;28;20463;-66
2023/07/03 02:02:37;;;;;;;27.07;6.77;;;16.80;99.90;;;;;;5071214;28;20406;-66
2023/07/03 02:05:08;;;;;;;26.17;7.38;;;16.80;99.90;;;;;;5092752;28;20434;-66
2023/07/03 02:07:35;;;;;;;24.33;6.55;;;16.80;99.90;;;;;;5095594;28;20390;-66
2023/07/03 02:10:02;;;;;;;29.02;7.13;;;16.80;99.90;;;;;;5091905;28;20425;-66
2023/07/03 02:12:29;;;;;;;29.48;7.45;;;16.80;99.90;;;;;;5093135;28;20539;-66
2023/07/03 02:14:55;;;;;;;22.15;6.13;;;16.80;99.90;;;;;;5092968;28;20424;-65
2023/07/03 02:17:20;;;;;;;24.87;6.77;;;16.90;99.90;;;;;;5089696;28;20443;-66
2023/07/03 02:19:46;;;;;;;25.20;6.83;;;16.80;99.90;;;;;;5089230;28;20412;-66
2023/07/03 02:22:12;;;;;;;26.40;6.43;;;16.90;99.90;;;;;;5071524;28;20401;-66
2023/07/03 02:24:37;;;;;;;25.85;6.78;;;16.80;99.90;;;;;;5097745;22;20801;-78
2023/07/03 02:27:03;;;;;;;24.35;6.32;;;17.20;99.90;;;;;;5052349;28;20401;-81
2023/07/03 02:29:29;;;;;;;24.13;6.50;;;16.80;99.90;;;;;;5050015;28;20388;-78
2023/07/03 02:31:54;;;;;;;27.20;7.55;;;16.90;99.90;;;;;;5050617;28;20423;-79
2023/07/03 02:34:21;;;;;;;23.83;6.45;;;16.80;99.90;;;;;;5036653;28;20477;-78
2023/07/03 02:36:48;;;;;;;28.73;6.95;;;17.10;99.90;;;;;;5031653;28;20407;-78
2023/07/03 02:39:13;;;;;;;24.30;6.70;;;16.80;99.90;;;;;;5047726;28;20804;-78
2023/07/03 02:41:39;;;;;;;25.47;6.13;;;16.80;99.90;;;;;;5039310;28;20465;-78
2023/07/03 02:44:05;;;;;;;24.63;6.65;;;16.70;99.90;;;;;;5037117;28;20405;-78
2023/07/03 02:46:30;;;;;;;25.77;7.15;;;16.80;99.90;;;;;;5046267;28;20409;-78
2023/07/03 02:48:56;;;;;;;27.60;6.43;;;16.70;99.90;;;;;;5043739;28;20397;-78
2023/07/03 02:51:22;;;;;;;28.87;6.70;;;16.70;99.90;;;;;;5024984;28;20419;-78
2023/07/03 02:53:47;;;;;;;25.03;6.37;;;16.70;99.90;;;;;;5029675;28;20922;-78
2023/07/03 02:56:13;;;;;;;30.30;6.73;;;16.60;99.90;;;;;;5024492;28;20420;-78
2023/07/03 02:58:39;;;;;;;24.40;6.40;;;16.60;99.90;;;;;;5031850;28;20963;-78
2023/07/03 03:01:04;;;;;;;24.67;6.25;;;16.60;99.90;;;;;;5023902;28;20454;-78
2023/07/03 03:03:30;;;;;;;24.02;6.32;;;16.60;99.90;;;;;;5021068;28;20425;-78
2023/07/03 03:05:56;;;;;;;24.85;6.40;;;16.50;99.90;;;;;;5013112;28;20424;-79
2023/07/03 03:08:25;;;;;;;25.35;6.70;;;16.60;99.90;;;;;;5030269;28;20419;-79
2023/07/03 03:10:51;;;;;;;22.48;7.07;;;16.50;99.90;;;;;;5011693;28;20409;-78
2023/07/03 03:13:17;;;;;;;21.60;6.38;;;16.50;99.90;;;;;;5045321;28;20448;-78
2023/07/03 03:15:43;;;;;;;24.70;6.43;;;16.50;99.90;;;;;;5031881;28;20405;-78
2023/07/03 03:18:10;;;;;;;24.30;5.93;;;16.50;99.90;;;;;;5011470;28;20421;-78
2023/07/03 03:20:35;;;;;;;25.23;6.72;;;16.40;99.90;;;;;;5038674;28;20399;-78
2023/07/03 03:23:01;;;;;;;24.10;5.93;;;16.50;99.90;;;;;;5047061;28;20419;-78
2023/07/03 03:25:27;;;;;;;21.20;6.40;;;16.40;99.90;;;;;;5028916;28;20405;-78
2023/07/03 03:27:52;;;;;;;20.57;6.13;;;16.40;99.90;;;;;;5038609;28;20410;-79
2023/07/03 03:30:18;;;;;;;26.10;6.30;;;16.40;99.90;;;;;;5029637;28;20413;-78
2023/07/03 03:32:44;;;;;;;21.42;5.88;;;16.40;99.90;;;;;;5033065;28;20400;-78
2023/07/03 03:35:09;;;;;;;21.02;6.10;;;16.40;99.90;;;;;;5038362;28;20792;-78
2023/07/03 03:37:35;;;;;;;22.23;6.05;;;16.30;99.90;;;;;;5023516;28;20408;-78
2023/07/03 03:40:01;;;;;;;24.03;6.13;;;16.30;99.90;;;;;;5039166;28;20771;-78
2023/07/03 03:42:26;;;;;;;22.60;6.47;;;16.30;99.90;;;;;;5020580;28;20910;-79
2023/07/03 03:44:52;;;;;;;23.13;5.70;;;16.30;99.90;;;;;;5040214;28;20410;-78
2023/07/03 03:47:19;;;;;;;21.20;5.28;;;16.20;99.90;;;;;;5033531;28;20413;-78
2023/07/03 03:49:45;;;;;;;18.17;4.90;;;16.30;99.90;;;;;;5033533;28;20495;-78
2023/07/03 03:52:11;;;;;;;21.30;6.13;;;16.20;99.90;;;;;;5027084;28;20537;-78
2023/07/03 03:54:36;;;;;;;16.23;4.97;;;16.20;99.90;;;;;;5006937;28;20516;-78
2023/07/03 03:57:03;;;;;;;20.48;5.47;;;16.10;99.90;;;;;;5034054;28;20843;-78
2023/07/03 03:59:28;;;;;;;18.38;4.93;;;16.10;99.90;;;;;;5049912;28;20613;-77
2023/07/03 04:01:54;;;;;;;14.73;4.33;;;16.00;99.90;;;;;;5035468;28;20769;-78
2023/07/03 04:04:19;;;;;;;14.15;4.32;;;16.00;99.90;;;;;;5039800;28;20918;-78
2023/07/03 04:06:45;;;;;;;15.20;4.30;;;15.90;99.90;;;;;;5052057;28;20414;-79
2023/07/03 04:09:11;;;;;;;15.50;3.97;;;15.90;99.90;;;;;;5044170;28;20788;-78
2023/07/03 04:11:37;;;;;;;14.20;3.92;;;15.90;99.90;;;;;;5033460;28;20907;-78
2023/07/03 04:14:02;;;;;;;14.45;4.00;;;16.00;99.90;;;;;;5030273;28;20440;-78
2023/07/03 04:16:31;;;;;;;13.00;3.53;;;15.80;99.90;;;;;;5041830;28;20405;-78
2023/07/03 04:18:57;;;;;;;13.50;3.50;;;15.80;99.90;;;;;;5028873;28;20780;-77
2023/07/03 04:21:22;;;;;;;15.07;3.92;;;15.80;99.90;;;;;;5034612;28;20409;-77
2023/07/03 04:23:48;;;;;;;10.87;3.10;;;15.80;99.90;;;;;;5027550;28;20436;-78
2023/07/03 04:26:14;;;;;;;10.37;2.80;;;15.70;99.90;;;;;;5036607;28;20468;-78
2023/07/03 04:28:41;;;;;;;13.57;3.17;;;15.70;99.90;;;;;;5029546;28;20417;-78
2023/07/03 04:31:07;;;;;;;11.17;2.80;;;15.70;99.90;;;;;;5029257;28;20420;-77
2023/07/03 04:33:33;;;;;;;8.88;2.75;;;15.60;99.90;;;;;;5029484;28;20435;-79
2023/07/03 04:35:58;;;;;;;9.45;2.83;;;15.60;99.90;;;;;;5034648;28;20507;-79
2023/07/03 04:38:24;;;;;;;8.63;2.43;;;15.60;99.90;;;;;;5034951;28;20980;-79
2023/07/03 04:40:51;;;;;;;9.87;2.70;;;15.70;99.90;;;;;;5020248;28;20913;-79
2023/07/03 04:43:17;;;;;;;9.48;2.70;;;15.70;99.90;;;;;;5032243;28;20815;-79
2023/07/03 04:45:51;;;;;;;12.73;3.13;;;15.70;99.90;;;;;;5030644;28;20429;-80
2023/07/03 04:48:19;;;;;;;12.05;3.22;;;15.80;99.90;;;;;;5038557;28;20408;-79
2023/07/03 04:50:48;;;;;;;12.95;3.38;;;15.80;99.90;;;;;;5035412;28;20925;-79
2023/07/03 04:53:14;;;;;;;10.90;2.90;;;15.80;99.90;;;;;;5041977;28;20826;-79
2023/07/03 04:55:40;;;;;;;11.68;2.83;;;15.80;99.90;;;;;;5040152;28;20408;-79
2023/07/03 04:58:07;;;;;;;11.30;3.03;;;16.10;99.90;;;;;;5034548;28;20539;-79
2023/07/03 05:00:33;;;;;;;9.82;2.35;;;15.80;99.90;;;;;;5028882;28;20429;-79
2023/07/03 05:03:02;;;;;;;10.10;2.47;;;15.80;99.90;;;;;;5043061;28;21984;-79
2023/07/03 05:05:28;;;;;;;9.83;2.80;;;15.80;99.90;;;;;;5023234;28;20441;-79
2023/07/03 05:07:54;;;;;;;9.15;2.72;;;15.80;99.90;;;;;;5023998;28;20497;-79
2023/07/03 05:10:21;;;;;;;9.98;3.00;;;16.20;99.90;;;;;;5037265;28;20416;-79
2023/07/03 05:12:47;;;;;;;10.73;2.88;;;15.70;99.90;;;;;;5034516;28;20462;-79
2023/07/03 05:15:14;;;;;;;10.30;3.00;;;15.70;99.90;;;;;;5039003;28;20443;-79
2023/07/03 05:17:41;;;;;;;11.63;3.00;;;15.70;99.90;;;;;;5039177;28;20417;-79
2023/07/03 05:20:10;;;;;;;10.55;2.85;;;16.10;99.90;;;;;;5027618;28;20413;-79
2023/07/03 05:22:40;;;;;;;8.68;2.65;;;15.80;99.90;;;;;;5040413;28;20412;-80
2023/07/03 05:25:07;;;;;;;14.27;3.35;;;15.80;99.90;;;;;;5052477;28;20409;-80
2023/07/03 05:27:33;;;;;;;10.07;2.90;;;15.90;99.90;;;;;;5049212;28;20407;-79
2023/07/03 05:29:59;;;;;;;12.45;3.33;;;16.00;99.90;;;;;;5045307;28;20466;-80
2023/07/03 05:32:25;;;;;;;10.40;2.70;;;16.00;99.90;;;;;;5036258;28;20932;-79
2023/07/03 05:34:51;;;;;;;11.23;3.10;;;16.00;99.90;;;;;;5029608;28;20429;-79
2023/07/03 05:37:17;;;;;;;12.07;2.80;;;16.10;99.90;;;;;;5040827;28;20403;-79
2023/07/03 05:39:46;;;;;;;10.30;2.72;;;16.20;99.90;;;;;;5034921;28;20424;-79
2023/07/03 05:42:12;;;;;;;11.77;2.80;;;16.30;99.90;;;;;;5036231;28;20409;-79
2023/07/03 05:44:37;;;;;;;11.13;3.00;;;16.30;99.90;;;;;;5041777;28;20939;-79
2023/07/03 05:47:03;;;;;;;11.77;2.63;;;16.40;99.90;;;;;;5046788;28;20454;-79
2023/07/03 05:49:29;;;;;;;12.60;3.20;;;16.50;99.90;;;;;;5044422;28;20426;-79
2023/07/03 05:51:54;;;;;;;11.63;2.93;;;16.50;99.90;;;;;;5041652;28;20492;-79
2023/07/03 05:54:21;;;;;;;10.65;2.60;;;16.50;99.90;;;;;;5036567;28;20423;-80
2023/07/03 05:57:05;;;;;;;11.77;3.15;;;16.40;99.90;;;;;;5013142;28;20428;-79
2023/07/03 05:59:32;;;;;;;12.75;2.63;;;16.40;99.90;;;;;;5026764;28;20553;-79
2023/07/03 06:01:58;;;;;;;10.90;2.80;;;16.30;99.90;;;;;;5024698;28;20417;-79
2023/07/03 06:04:24;;;;;;;12.80;3.00;;;16.40;99.90;;;;;;5043535;28;20405;-79
2023/07/03 06:06:55;;;;;;;12.48;3.05;;;16.50;99.90;;;;;;5022242;28;20444;-79
2023/07/03 06:09:22;;;;;;;12.55;2.75;;;16.40;99.90;;;;;;5033470;28;20445;-79
2023/07/03 06:11:48;;;;;;;12.43;2.60;;;16.50;99.90;;;;;;5044824;28;20434;-79
2023/07/03 06:14:16;;;;;;;9.03;2.53;;;16.50;99.90;;;;;;5037693;28;20860;-80
2023/07/03 06:16:42;;;;;;;10.43;2.67;;;16.60;99.90;;;;;;5028386;28;20418;-79
2023/07/03 06:19:09;;;;;;;11.27;2.70;;;16.50;99.90;;;;;;5024166;28;20409;-79
2023/07/03 06:21:35;;;;;;;10.20;2.45;;;16.40;99.90;;;;;;5046444;28;20759;-80
2023/07/03 06:24:00;;;;;;;10.77;2.67;;;16.50;99.90;;;;;;5035881;28;20463;-79
2023/07/03 06:26:28;;;;;;;12.47;2.67;;;16.60;99.90;;;;;;5034694;28;20466;-79
2023/07/03 06:28:54;;;;;;;10.40;2.53;;;16.60;99.90;;;;;;5029387;28;20412;-79
2023/07/03 06:31:20;;;;;;;8.57;2.57;;;16.70;99.90;;;;;;5043782;28;20421;-80
2023/07/03 06:33:45;;;;;;;12.13;3.10;;;16.70;99.90;;;;;;5053844;28;20423;-80
2023/07/03 06:36:11;;;;;;;14.18;3.00;;;16.80;99.90;;;;;;5009375;28;20532;-80
2023/07/03 06:38:37;;;;;;;11.32;2.58;;;16.90;99.90;;;;;;5043816;28;20933;-79
2023/07/03 06:41:02;;;;;;;10.57;2.60;;;17.00;99.90;;;;;;5030358;28;20406;-79
2023/07/03 06:43:28;;;;;;;8.30;2.23;;;17.00;99.90;;;;;;5024752;28;20417;-79
2023/07/03 06:45:54;;;;;;;11.53;2.53;;;17.10;99.90;;;;;;5039442;28;20439;-79
2023/07/03 06:48:19;;;;;;;10.35;2.70;;;17.20;99.90;;;;;;5030701;28;20928;-79
2023/07/03 06:50:45;;;;;;;9.60;2.60;;;17.10;99.80;;;;;;5039407;28;20649;-79
2023/07/03 06:53:10;;;;;;;11.83;2.50;;;17.00;99.70;;;;;;5029127;28;20418;-79
2023/07/03 06:55:36;;;;;;;10.23;2.50;;;17.10;99.90;;;;;;5031897;28;20927;-79
2023/07/03 06:58:02;;;;;;;10.45;2.50;;;17.20;99.90;;;;;;5027214;28;20422;-79
2023/07/03 07:00:29;;;;;;;11.60;2.50;;;17.20;99.90;;;;;;5023154;28;20409;-79
2023/07/03 07:02:54;;;;;;;13.63;2.83;;;17.30;99.90;;;;;;5037665;28;20751;-79
2023/07/03 07:05:21;;;;;;;10.77;2.60;;;17.30;99.90;;;;;;5025394;28;20424;-79
2023/07/03 07:07:46;;;;;;;13.50;2.95;;;17.30;99.90;;;;;;5042634;28;20427;-79
2023/07/03 07:10:12;;;;;;;14.00;3.00;;;17.40;99.90;;;;;;5039465;28;20407;-79
2023/07/03 07:12:38;;;;;;;14.37;2.90;;;17.50;99.90;;;;;;5008948;28;20444;-80
2023/07/03 07:15:04;;;;;;;11.00;2.70;;;17.50;99.70;;;;;;5032591;28;20514;-79
2023/07/03 07:17:30;;;;;;;12.75;2.92;;;17.50;99.30;;;;;;5043869;28;20403;-80
2023/07/03 07:19:56;;;;;;;10.35;2.50;;;17.70;99.00;;;;;;5031810;28;21148;-79
2023/07/03 07:22:21;;;;;;;12.70;2.87;;;17.40;99.00;;;;;;5025563;28;20474;-79
2023/07/03 07:24:47;;;;;;;11.73;2.80;;;17.30;98.90;;;;;;5032896;28;20909;-79
2023/07/03 07:27:12;;;;;;;15.48;3.03;;;17.30;99.60;;;;;;5019109;28;20445;-80
2023/07/03 07:29:39;;;;;;;10.35;2.70;;;17.30;99.90;;;;;;5041894;28;20406;-79
2023/07/03 07:32:05;;;;;;;13.05;2.60;;;17.30;99.50;;;;;;5047674;28;20403;-79
2023/07/03 07:34:31;;;;;;;9.43;2.42;;;17.40;99.90;;;;;;5034790;28;20447;-79
2023/07/03 07:36:57;;;;;;;9.00;2.22;;;17.50;99.90;;;;;;5022087;28;20432;-80
2023/07/03 07:39:25;;;;;;;9.82;2.50;;;17.60;98.90;;;;;;5058868;28;20397;-79
2023/07/03 07:41:51;;;;;;;9.70;2.30;;;17.70;98.50;;;;;;5035669;28;20462;-78
2023/07/03 07:44:17;;;;;;;9.20;2.15;;;17.70;98.90;;;;;;5053919;28;20808;-78
2023/07/03 07:46:42;;;;;;;8.90;2.00;;;17.70;98.20;;;;;;5031551;28;20441;-78
2023/07/03 07:49:09;;;;;;;8.87;1.93;;;17.80;97.00;;;;;;5027086;28;20384;-79
2023/07/03 07:51:34;;;;;;;8.80;2.00;;;17.80;96.70;;;;;;5039562;28;20417;-79
2023/07/03 07:54:01;;;;;;;7.83;1.90;;;17.80;96.30;;;;;;5025575;28;20431;-78
2023/07/03 07:56:27;;;;;;;8.25;2.17;;;17.90;96.90;;;;;;5042335;28;20430;-78
2023/07/03 07:58:53;;;;;;;8.03;1.87;;;18.00;97.00;;;;;;5038041;28;20396;-78
2023/07/03 08:01:18;;;;;;;6.40;1.67;;;18.00;97.10;;;;;;5031434;28;20450;-79
2023/07/03 08:03:44;;;;;;;7.10;1.63;;;18.10;96.50;;;;;;5036681;28;20815;-79
2023/07/03 08:06:11;;;;;;;6.15;1.70;;;18.20;96.00;;;;;;5035419;28;20405;-79
2023/07/03 08:08:37;;;;;;;6.07;1.60;;;18.30;94.90;;;;;;5028211;28;20977;-78
2023/07/03 08:11:05;;;;;;;9.67;2.60;;;18.20;94.60;;;;;;5044932;28;20405;-78
2023/07/03 08:13:32;;;;;;;8.40;2.27;;;18.20;95.60;;;;;;5035240;28;20936;-78
2023/07/03 08:15:58;;;;;;;6.68;1.83;;;18.50;96.30;;;;;;5013683;28;20865;-78
2023/07/03 08:18:25;;;;;;;6.90;1.80;;;18.30;95.30;;;;;;5053107;28;20397;-79
2023/07/03 08:20:51;;;;;;;7.65;2.00;;;18.60;95.10;;;;;;5036767;28;20420;-78
2023/07/03 08:23:17;;;;;;;5.68;1.88;;;18.50;94.30;;;;;;5046252;28;20429;-78
2023/07/03 08:28:11;;;;;;;6.27;1.67;;;18.80;93.80;;;;;;5090231;28;20444;-65
2023/07/03 08:30:37;;;;;;;6.00;1.80;;;18.90;93.50;;;;;;5091549;28;20883;-66
2023/07/03 08:33:03;;;;;;;6.65;1.67;;;19.00;93.10;;;;;;5090185;28;20822;-66
2023/07/03 08:35:29;;;;;;;5.25;1.73;;;19.10;93.40;;;;;;5072745;28;20505;-65
2023/07/03 08:37:54;;;;;;;6.53;1.80;;;19.30;93.40;;;;;;5088654;28;20752;-67
2023/07/03 08:40:22;;;;;;;6.57;1.60;;;19.60;93.30;;;;;;5084492;28;20447;-65
2023/07/03 08:42:53;;;;;;;5.93;1.95;;;19.90;91.60;;;;;;5087935;28;20410;-66
2023/07/03 08:45:21;;;;;;;7.78;2.05;;;19.80;89.80;;;;;;5084173;28;20485;-66
2023/07/03 08:47:49;;;;;;;6.22;1.90;;;19.70;90.00;;;;;;5073204;28;20409;-66
2023/07/03 08:50:18;;;;;;;8.13;1.98;;;19.60;90.90;;;;;;5065063;28;20402;-66
2023/07/03 08:53:04;;;;;;;8.20;2.23;;;19.70;91.70;;;;;;5083486;28;20490;-65
2023/07/03 08:55:45;;;;;;;8.30;2.10;;;19.70;91.90;;;;;;5062857;28;20429;-66
2023/07/03 08:58:11;;;;;;;9.88;2.20;;;19.70;90.60;;;;;;5061403;28;20431;-66
2023/07/03 09:00:49;;;;;;;10.70;2.60;;;19.60;90.80;;;;;;5078149;28;20590;-66
2023/07/03 09:03:26;;;;;;;7.30;2.03;;;19.40;91.40;;;;;;5081068;28;20611;-66
2023/07/03 09:06:05;;;;;;;9.27;2.40;;;19.40;91.90;;;;;;5078895;28;20433;-66
2023/07/03 09:08:42;;;;;;;8.80;2.60;;;19.30;92.00;;;;;;5080632;28;20398;-65
2023/07/03 09:11:08;;;;;;;11.05;2.75;;;19.30;91.70;;;;;;5083240;28;20390;-65
2023/07/03 09:13:40;;;;;;;10.38;2.55;;;19.30;91.80;;;;;;5080828;28;20417;-66
2023/07/03 09:16:18;;;;;;;9.50;2.23;;;19.30;91.30;;;;;;5067616;28;20438;-66
2023/07/03 09:18:51;;;;;;;9.40;2.33;;;19.20;91.10;;;;;;5089563;28;20875;-66
2023/07/03 09:21:17;;;;;;;8.53;2.40;;;19.20;92.00;;;;;;5066983;28;20942;-65
2023/07/03 09:24:21;;;;;;;8.20;2.33;;;19.40;91.80;;;;;;5067846;28;20396;-65
2023/07/03 09:26:59;;;;;;;7.80;2.10;;;19.60;91.70;;;;;;5062031;28;20411;-66
2023/07/03 09:29:26;;;;;;;9.45;2.28;;;20.00;91.50;;;;;;5075588;28;20398;-65
2023/07/03 09:31:53;;;;;;;8.70;2.47;;;20.40;90.70;;;;;;5072563;28;20409;-65
2023/07/03 09:34:19;;;;;;;12.15;2.10;;;20.40;90.20;;;;;;5096045;28;20410;-65
2023/07/03 09:36:57;;;;;;;6.50;2.10;;;20.40;89.70;;;;;;5064089;28;20547;-65
2023/07/03 09:39:23;;;;;;;8.75;1.88;;;20.20;90.00;;;;;;5072430;28;20406;-66
2023/07/03 09:41:49;;;;;;;7.67;1.93;;;20.10;87.80;;;;;;5068900;28;20461;-65
2023/07/03 09:44:19;;;;;;;7.67;1.90;;;20.20;88.20;;;;;;5070650;28;20507;-65
2023/07/03 09:46:46;;;;;;;6.13;1.60;;;20.50;83.80;;;;;;5088645;28;20830;-66
2023/07/03 09:49:30;;;;;;;6.45;1.77;;;20.60;83.70;;;;;;5090003;28;20754;-66
2023/07/03 09:51:58;;;;;;;6.03;1.50;;;20.90;82.20;;;;;;5089667;28;20438;-65
2023/07/03 09:54:27;;;;;;;7.00;1.83;;;20.90;80.00;;;;;;5079132;28;20492;-66
2023/07/03 09:56:54;;;;;;;6.65;1.77;;;20.30;79.20;;;;;;5072205;28;20402;-66
2023/07/03 09:59:22;;;;;;;5.80;1.67;;;20.50;78.30;;;;;;5088906;28;20756;-66
2023/07/03 10:01:54;;;;;;;3.88;1.35;;;20.40;79.10;;;;;;5087953;28;20505;-66
2023/07/03 10:04:20;;;;;;;7.78;1.80;;;20.60;79.20;;;;;;5081163;28;20397;-66
2023/07/03 10:07:16;;;;;;;6.43;1.67;;;20.80;76.20;;;;;;5087272;28;20394;-66
2023/07/03 10:09:43;;;;;;;6.40;1.80;;;20.70;76.30;;;;;;5075315;28;20789;-66
2023/07/03 10:12:32;;;;;;;7.07;1.60;;;20.50;78.10;;;;;;5088503;28;20719;-66
2023/07/03 10:15:12;;;;;;;8.88;1.63;;;20.50;77.30;;;;;;5086478;28;20449;-65
2023/07/03 10:17:45;;;;;;;6.15;1.70;;;20.40;76.50;;;;;;5087950;28;20907;-66
2023/07/03 10:20:20;;;;;;;6.65;1.70;;;20.40;76.70;;;;;;5089099;28;20447;-65
2023/07/03 10:22:49;;;;;;;7.55;1.90;;;20.30;76.50;;;;;;5086992;28;20418;-65
2023/07/03 10:25:24;;;;;;;6.07;1.67;;;20.30;77.00;;;;;;5087994;28;20817;-66
2023/07/03 10:27:58;;;;;;;6.93;1.75;;;20.50;78.00;;;;;;5089483;28;20398;-66
2023/07/03 10:30:26;;;;;;;6.87;1.87;;;20.50;78.10;;;;;;5064510;28;20410;-66
2023/07/03 10:32:54;;;;;;;7.80;2.08;;;20.40;76.50;;;;;;5092164;28;20441;-65
2023/07/03 10:35:24;;;;;;;8.20;1.85;;;20.30;78.20;;;;;;5037838;28;20664;-66
2023/07/03 10:38:26;;;;;;;6.38;1.63;;;20.30;78.20;;;;;;5070381;28;20567;-66
2023/07/03 10:41:17;;;;;;;7.00;1.88;;;20.30;79.00;;;;;;5086196;28;20788;-65
2023/07/03 10:43:51;;;;;;;8.85;2.03;;;20.10;79.10;;;;;;5085707;28;20402;-66
2023/07/03 10:46:48;;;;;;;8.65;1.98;;;20.10;79.60;;;;;;5089676;28;20407;-66
2023/07/03 10:49:29;;;;;;;7.70;1.80;;;20.00;79.20;;;;;;5064745;28;20414;-65
2023/07/03 10:52:11;;;;;;;6.35;1.70;;;19.90;80.20;;;;;;5082842;28;20414;-66
2023/07/03 10:55:15;;;;;;;5.07;1.60;;;20.10;82.30;;;;;;5081105;28;20459;-65
2023/07/03 10:58:13;;;;;;;6.65;1.73;;;20.60;82.50;;;;;;5063031;28;20432;-66
2023/07/03 11:01:01;;;;;;;8.73;2.20;;;21.10;78.70;;;;;;5070968;28;20402;-65
2023/07/03 11:03:37;;;;;;;6.07;1.92;;;21.40;77.20;;;;;;5086049;28;20513;-65
2023/07/03 11:06:06;;;;;;;7.05;1.90;;;21.30;75.60;;;;;;5084775;28;20445;-67
2023/07/03 11:09:00;;;;;;;8.00;1.80;;;21.30;76.80;;;;;;5083635;28;20430;-65
2023/07/03 11:11:44;;;;;;;5.90;1.65;;;21.20;75.50;;;;;;5048556;28;20429;-65
2023/07/03 11:14:26;;;;;;;6.20;1.77;;;21.20;77.00;;;;;;5082842;28;20420;-65
2023/07/03 11:17:21;;;;;;;6.50;1.70;;;21.30;76.60;;;;;;5082919;28;20418;-65
2023/07/03 11:20:05;;;;;;;7.70;1.70;;;21.40;77.10;;;;;;5079812;28;20818;-65
2023/07/03 11:23:20;;;;;;;6.50;1.85;;;21.40;77.20;;;;;;5082566;28;20402;-65
2023/07/03 11:26:14;;;;;;;6.90;1.80;;;21.30;76.60;;;;;;5051606;28;20767;-66
2023/07/03 11:28:48;;;;;;;7.23;2.30;;;21.30;77.90;;;;;;5071207;28;20402;-66
2023/07/03 11:31:15;;;;;;;7.60;1.80;;;21.50;76.70;;;;;;5088053;28;20397;-65
2023/07/03 11:33:42;;;;;;;7.20;1.90;;;21.50;77.20;;;;;;5087102;28;20512;-66
2023/07/03 11:36:35;;;;;;;4.90;1.65;;;21.50;76.60;;;;;;5088888;28;20394;-65
2023/07/03 11:39:20;;;;;;;7.53;1.70;;;21.60;76.30;;;;;;5088849;28;20447;-65
2023/07/03 11:41:55;;;;;;;7.07;1.77;;;21.60;76.30;;;;;;5088374;28;20398;-66
2023/07/03 11:44:31;;;;;;;7.80;1.67;;;21.70;76.00;;;;;;5080361;28;20390;-66
2023/07/03 11:47:04;;;;;;;5.43;1.65;;;21.90;73.90;;;;;;5087715;28;20418;-66
2023/07/03 11:49:34;;;;;;;4.72;1.60;;;22.00;72.90;;;;;;5082020;28;20386;-65
2023/07/03 11:52:03;;;;;;;6.53;1.85;;;21.90;72.40;;;;;;5088220;28;20516;-66
2023/07/03 11:54:32;;;;;;;5.22;1.67;;;21.60;72.50;;;;;;5087890;28;20777;-65
2023/07/03 11:57:07;;;;;;;5.13;1.70;;;21.30;73.30;;;;;;5086982;28;20909;-65
2023/07/03 11:59:36;;;;;;;6.80;1.90;;;21.10;74.00;;;;;;5061347;28;20750;-65
2023/07/03 12:02:11;;;;;;;5.90;1.73;;;20.80;74.60;;;;;;5087848;28;20398;-65
2023/07/03 12:04:42;;;;;;;7.13;1.90;;;20.60;76.30;;;;;;5082145;28;20947;-65
2023/07/03 12:07:10;;;;;;;6.25;1.77;;;20.40;76.20;;;;;;5082076;28;20399;-65
2023/07/03 12:09:36;;;;;;;6.38;1.80;;;20.30;77.00;;;;;;5087716;28;20444;-65
2023/07/03 12:12:06;;;;;;;6.35;1.90;;;20.20;78.30;;;;;;5088559;28;20422;-65
2023/07/03 12:14:54;;;;;;;9.63;2.00;;;20.10;78.90;;;;;;5079003;28;20422;-65
2023/07/03 12:17:32;;;;;;;7.43;1.98;;;20.30;79.90;;;;;;5081069;28;20409;-65
2023/07/03 12:20:20;;;;;;;6.13;1.90;;;20.50;78.00;;;;;;5062898;28;20436;-65
2023/07/03 12:22:51;;;;;;;8.45;1.90;;;20.60;75.10;;;;;;5088567;28;20478;-65
2023/07/03 12:25:25;;;;;;;7.10;1.80;;;20.50;75.30;;;;;;5066974;28;20394;-66
2023/07/03 12:27:53;;;;;;;7.38;1.85;;;20.30;76.40;;;;;;5089380;28;20398;-66
2023/07/03 12:30:24;;;;;;;9.98;2.35;;;20.20;76.10;;;;;;5088652;28;20915;-65
2023/07/03 12:32:52;;;;;;;7.45;1.90;;;20.10;76.60;;;;;;5092215;28;20421;-65
2023/07/03 12:35:26;;;;;;;5.38;1.70;;;20.00;76.40;;;;;;5075773;28;20431;-65
2023/07/03 12:37:58;;;;;;;6.35;1.80;;;19.90;74.90;;;;;;5087121;28;20437;-65
2023/07/03 12:40:25;;;;;;;6.47;1.88;;;19.70;74.90;;;;;;5083947;28;20394;-66
2023/07/03 12:42:54;;;;;;;6.07;1.60;;;19.60;74.50;;;;;;5090570;28;20408;-65
2023/07/03 12:45:25;;;;;;;6.13;1.70;;;19.40;73.70;;;;;;5087131;28;20733;-66
2023/07/03 12:48:17;;;;;;;8.45;2.15;;;19.30;75.00;;;;;;5073748;28;20402;-66
2023/07/03 12:50:50;;;;;;;6.78;1.98;;;19.20;76.30;;;;;;5089881;28;20405;-65
2023/07/03 12:53:18;;;;;;;7.95;1.90;;;19.00;77.10;;;;;;5089858;28;20725;-65
2023/07/03 12:55:50;;;;;;;6.35;1.98;;;19.00;79.00;;;;;;5091103;28;20410;-65